Terminal Aerodrome Forecast
Issued by NWS

Home | Current Version | Previous Version | Text Only | Print | Product List | Glossary Off
Versions: 1 2 3 4 5 6 7 8 9 10 11 12 13 14 15 16

000
FTUS43 KFGF 251700
TAFBJI
TAF
KBJI 251735Z 2518/2618 18005KT P6SM BKN020 OVC035
     FM252000 21007KT P6SM SCT025 BKN040
     FM260100 26004KT P6SM SCT250
     FM261500 26008KT P6SM SCT250=

USA.gov is the U.S. government's official web portal to all federal, state and local government web resources and services.